Time;durP1;ratioP1;P1;durP2;ratioP2;P2;SDS_P1;SDS_P2;PMS_P1;PMS_P2;Temp;Humidity;BMP_temperature;BMP_pressure;BME280_temperature;BME280_humidity;BME280_pressure;Samples;Min_cycle;Max_cycle;Signal;HPM_P1;HPM_P2
2022/03/02 00:03:07;;;;;;;56.2;81.1;;;;;;;-5;72.8;99840;;;;
2022/03/02 00:13:07;;;;;;;56.2;81.1;;;;;;;-5;72.3;99840;;;;
2022/03/02 00:24:08;;;;;;;58.5;80.9;;;;;;;-5.1;72.6;99830;;;;
2022/03/02 00:34:07;;;;;;;58.5;80.9;;;;;;;-5.2;72.8;99820;;;;
2022/03/02 00:45:07;;;;;;;58.5;80.9;;;;;;;-5.2;73.4;99810;;;;
2022/03/02 00:56:09;;;;;;;68.2;97.2;;;;;;;-5.1;73.9;99810;;;;
2022/03/02 01:06:08;;;;;;;68.2;97.2;;;;;;;-5;73.5;99800;;;;
2022/03/02 01:17:07;;;;;;;68.2;97.2;;;;;;;-4.9;73;99790;;;;
2022/03/02 01:28:08;;;;;;;50.6;74.2;;;;;;;-5;72.5;99780;;;;
2022/03/02 01:38:07;;;;;;;;;;;;;;;;;;;;;
2022/03/02 01:49:07;;;;;;;55.7;90;;;;;;;-5.2;73.4;99760;;;;
2022/03/02 01:59:07;;;;;;;55.7;90;;;;;;;-5.2;73.9;99760;;;;
2022/03/02 02:09:07;;;;;;;55.7;90;;;;;;;-5.3;74.4;99760;;;;
2022/03/02 02:20:07;;;;;;;63.5;93.5;;;;;;;-5.3;75.3;99750;;;;
2022/03/02 02:30:07;;;;;;;;;;;;;;;;;;;;;
2022/03/02 02:40:07;;;;;;;63.5;93.5;;;;;;;-5.1;75.1;99740;;;;
2022/03/02 02:50:07;;;;;;;65;83.4;;;;;;;-4.9;75.7;99730;;;;
2022/03/02 03:01:07;;;;;;;65;83.4;;;;;;;-4.6;75.6;99730;;;;
2022/03/02 03:12:09;;;;;;;65;83.4;;;;;;;-4.5;74.2;99720;;;;
2022/03/02 03:23:07;;;;;;;57;79.7;;;;;;;-4.7;73.3;99730;;;;
2022/03/02 03:34:07;;;;;;;57;79.7;;;;;;;-5;74.1;99730;;;;
2022/03/02 03:44:07;;;;;;;57;79.7;;;;;;;-5.2;74.1;99730;;;;
2022/03/02 03:55:07;;;;;;;58.7;87;;;;;;;-5.2;74.7;99720;;;;
2022/03/02 04:06:07;;;;;;;58.7;87;;;;;;;-5.3;74.8;99720;;;;
2022/03/02 04:16:07;;;;;;;58.7;87;;;;;;;-5.4;75;99710;;;;
2022/03/02 04:26:07;;;;;;;55.9;80.9;;;;;;;-5.5;75.5;99700;;;;
2022/03/02 04:36:07;;;;;;;55.9;80.9;;;;;;;-5.6;76.2;99700;;;;
2022/03/02 04:46:07;;;;;;;55.9;80.9;;;;;;;-5.6;75.9;99690;;;;
2022/03/02 04:57:09;;;;;;;45;69.6;;;;;;;-5.5;75.7;99690;;;;
2022/03/02 05:07:07;;;;;;;45;69.6;;;;;;;-5.6;75.6;99690;;;;
2022/03/02 05:18:08;;;;;;;48.1;69.2;;;;;;;-5.6;75.3;99680;;;;
2022/03/02 05:28:07;;;;;;;48.1;69.2;;;;;;;-5.6;75.2;99680;;;;
2022/03/02 05:39:07;;;;;;;48.1;69.2;;;;;;;-5.6;74.9;99680;;;;
2022/03/02 05:50:07;;;;;;;47.9;71;;;;;;;-5.6;74.8;99680;;;;
2022/03/02 06:01:07;;;;;;;47.9;71;;;;;;;-5.5;74.9;99690;;;;
2022/03/02 06:11:07;;;;;;;47.9;71;;;;;;;-5.2;75.1;99700;;;;
2022/03/02 06:21:07;;;;;;;55.3;86;;;;;;;-4.9;75.5;99690;;;;
2022/03/02 06:32:07;;;;;;;55.3;86;;;;;;;-4.5;75.7;99690;;;;
2022/03/02 06:42:11;;;;;;;55.3;86;;;;;;;-4.2;75.5;99690;;;;
2022/03/02 06:52:07;;;;;;;70.7;97.3;;;;;;;-3.8;75.5;99690;;;;
2022/03/02 07:03:09;;;;;;;70.7;97.3;;;;;;;-3.5;73.1;99690;;;;
2022/03/02 07:13:09;;;;;;;70.7;97.3;;;;;;;-3;72.4;99700;;;;
2022/03/02 07:24:07;;;;;;;68.5;81;;;;;;;-2.2;70.6;99700;;;;
2022/03/02 07:34:07;;;;;;;68.5;81;;;;;;;-1.7;69.6;99700;;;;
2022/03/02 07:45:07;;;;;;;68.5;81;;;;;;;-1.1;68.9;99690;;;;
2022/03/02 07:56:08;;;;;;;80.9;94.3;;;;;;;-0.9;67.6;99690;;;;
2022/03/02 08:06:07;;;;;;;80.9;94.3;;;;;;;-0.6;66.6;99690;;;;
2022/03/02 08:16:07;;;;;;;65.3;80.3;;;;;;;-0.5;66;99680;;;;
2022/03/02 08:27:07;;;;;;;65.3;80.3;;;;;;;-0.3;65.7;99670;;;;
2022/03/02 08:37:07;;;;;;;65.3;80.3;;;;;;;-0.2;65;99670;;;;
2022/03/02 08:47:09;;;;;;;56.5;66.4;;;;;;;0;63.9;99660;;;;
2022/03/02 08:58:08;;;;;;;56.5;66.4;;;;;;;0.5;63.1;99660;;;;
2022/03/02 09:09:07;;;;;;;56.5;66.4;;;;;;;0.7;61.2;99640;;;;
2022/03/02 09:19:07;;;;;;;37.7;47.5;;;;;;;1.1;60.7;99620;;;;
2022/03/02 09:29:08;;;;;;;37.7;47.5;;;;;;;1.4;59.4;99610;;;;
2022/03/02 09:40:07;;;;;;;37.7;47.5;;;;;;;1.9;58.5;99600;;;;
2022/03/02 09:50:08;;;;;;;33.1;40.5;;;;;;;2.4;56.8;99590;;;;
2022/03/02 10:00:08;;;;;;;33.1;40.5;;;;;;;2.8;56.2;99580;;;;
2022/03/02 10:11:08;;;;;;;33.1;40.5;;;;;;;3;54.1;99570;;;;
2022/03/02 10:22:08;;;;;;;25.3;31.4;;;;;;;3.4;54.1;99550;;;;
2022/03/02 10:32:09;;;;;;;25.3;31.4;;;;;;;3.5;52.5;99530;;;;
2022/03/02 10:43:08;;;;;;;25.3;31.4;;;;;;;3.3;51.1;99510;;;;
2022/03/02 10:53:08;;;;;;;17.7;22.6;;;;;;;3.9;51.1;99500;;;;
2022/03/02 11:04:07;;;;;;;17.7;22.6;;;;;;;4.1;49.9;99470;;;;
2022/03/02 11:14:07;;;;;;;17.7;22.6;;;;;;;4.6;49.9;99470;;;;
2022/03/02 11:24:09;;;;;;;16.5;20.1;;;;;;;4.6;49.9;99450;;;;
2022/03/02 11:35:10;;;;;;;16.5;20.1;;;;;;;4.7;48;99430;;;;
2022/03/02 11:45:08;;;;;;;16.5;20.1;;;;;;;4.7;47;99410;;;;
2022/03/02 11:56:08;;;;;;;16.1;20.5;;;;;;;4.7;46;99390;;;;
2022/03/02 12:06:10;;;;;;;16.1;20.5;;;;;;;4.4;46.3;99380;;;;
2022/03/02 12:16:08;;;;;;;12.8;18;;;;;;;5;46.3;99360;;;;
2022/03/02 12:27:08;;;;;;;12.8;18;;;;;;;5.4;47.1;99350;;;;
2022/03/02 12:38:07;;;;;;;12.8;18;;;;;;;5.7;44.8;99340;;;;
2022/03/02 12:48:08;;;;;;;13;17.6;;;;;;;5.5;44.1;99320;;;;
2022/03/02 12:59:07;;;;;;;13;17.6;;;;;;;5.7;44.4;99310;;;;
2022/03/02 13:09:08;;;;;;;13;17.6;;;;;;;5.8;44.6;99300;;;;
2022/03/02 13:20:08;;;;;;;14.9;22.6;;;;;;;5.7;44.4;99290;;;;
2022/03/02 13:30:08;;;;;;;14.9;22.6;;;;;;;5.8;44.2;99280;;;;
2022/03/02 13:40:08;;;;;;;14.9;22.6;;;;;;;5.7;43.7;99280;;;;
2022/03/02 13:51:08;;;;;;;13.9;18.5;;;;;;;5.7;42.3;99270;;;;
2022/03/02 14:02:08;;;;;;;13.9;18.5;;;;;;;5.6;41.6;99270;;;;
2022/03/02 14:13:10;;;;;;;13.9;18.5;;;;;;;5.7;40.2;99260;;;;
2022/03/02 14:24:08;;;;;;;8.9;11.8;;;;;;;5.7;40.3;99260;;;;
2022/03/02 14:34:08;;;;;;;8.9;11.8;;;;;;;5.7;40.8;99260;;;;
2022/03/02 14:44:08;;;;;;;8.9;11.8;;;;;;;5.6;41.5;99250;;;;
2022/03/02 14:55:08;;;;;;;8.4;12.3;;;;;;;5.3;42.4;99250;;;;
2022/03/02 15:05:09;;;;;;;8.4;12.3;;;;;;;5.1;42;99240;;;;
2022/03/02 15:15:08;;;;;;;9.8;13.1;;;;;;;5;41.6;99240;;;;
2022/03/02 15:26:08;;;;;;;9.8;13.1;;;;;;;4.8;41.1;99230;;;;
2022/03/02 15:36:09;;;;;;;9.8;13.1;;;;;;;4.3;41.8;99230;;;;
2022/03/02 15:47:08;;;;;;;9.8;12.9;;;;;;;4.1;41.8;99230;;;;
2022/03/02 15:58:08;;;;;;;9.8;12.9;;;;;;;3.8;43.2;99230;;;;
2022/03/02 16:09:08;;;;;;;9.8;12.9;;;;;;;3.4;44.2;99220;;;;
2022/03/02 16:20:08;;;;;;;75.6;90.5;;;;;;;2.9;45.4;99220;;;;
2022/03/02 16:30:08;;;;;;;75.6;90.5;;;;;;;2.4;46.6;99220;;;;
2022/03/02 16:40:08;;;;;;;75.6;90.5;;;;;;;1.7;48.5;99230;;;;
2022/03/02 16:51:09;;;;;;;49.3;62.7;;;;;;;0.9;50.1;99220;;;;
2022/03/02 17:01:08;;;;;;;49.3;62.7;;;;;;;0.5;51.8;99230;;;;
2022/03/02 17:12:08;;;;;;;49.3;62.7;;;;;;;0.1;53.3;99230;;;;
2022/03/02 17:23:08;;;;;;;20.9;29.7;;;;;;;-0.1;55.4;99220;;;;
2022/03/02 17:33:08;;;;;;;20.9;29.7;;;;;;;-0.2;57.3;99200;;;;
2022/03/02 17:43:08;;;;;;;20.9;29.7;;;;;;;-0.5;57.3;99200;;;;
2022/03/02 17:54:08;;;;;;;31.2;38;;;;;;;-0.8;59.6;99190;;;;
2022/03/02 18:04:08;;;;;;;31.2;38;;;;;;;-0.9;60.2;99190;;;;
2022/03/02 18:14:09;;;;;;;31.2;38;;;;;;;-1.2;60.3;99190;;;;
2022/03/02 18:25:08;;;;;;;35.4;50.5;;;;;;;-1.6;61.4;99180;;;;
2022/03/02 18:35:08;;;;;;;35.4;50.5;;;;;;;-1.7;62;99180;;;;
2022/03/02 18:46:08;;;;;;;26.7;35.9;;;;;;;-1.9;63.5;99180;;;;
2022/03/02 18:56:08;;;;;;;26.7;35.9;;;;;;;-2.2;64;99180;;;;
2022/03/02 19:07:08;;;;;;;26.7;35.9;;;;;;;-2.3;65.1;99160;;;;
2022/03/02 19:18:08;;;;;;;38.5;50.8;;;;;;;-2.4;65.2;99160;;;;
2022/03/02 19:29:08;;;;;;;38.5;50.8;;;;;;;-2.6;65.4;99170;;;;
2022/03/02 19:40:08;;;;;;;38.5;50.8;;;;;;;-2.7;66.4;99160;;;;
2022/03/02 19:50:08;;;;;;;56.9;86.5;;;;;;;-2.9;66.3;99160;;;;
2022/03/02 20:00:08;;;;;;;56.9;86.5;;;;;;;-3.1;66.6;99160;;;;
2022/03/02 20:11:08;;;;;;;56.9;86.5;;;;;;;-3;68.6;99160;;;;
2022/03/02 20:22:08;;;;;;;45.4;66.6;;;;;;;-3;69.1;99160;;;;
2022/03/02 20:32:08;;;;;;;45.4;66.6;;;;;;;-3.2;68.2;99160;;;;
2022/03/02 20:43:08;;;;;;;45.4;66.6;;;;;;;-3.3;68.1;99170;;;;
2022/03/02 20:53:08;;;;;;;42;60.6;;;;;;;-3.3;68.6;99160;;;;
2022/03/02 21:04:08;;;;;;;42;60.6;;;;;;;-3.2;69.1;99160;;;;
2022/03/02 21:14:08;;;;;;;62.1;84;;;;;;;-3;69.3;99150;;;;
2022/03/02 21:24:08;;;;;;;62.1;84;;;;;;;-2.7;69.7;99150;;;;
2022/03/02 21:34:08;;;;;;;62.1;84;;;;;;;-2.5;69.5;99150;;;;
2022/03/02 21:45:08;;;;;;;112.8;158.9;;;;;;;-2.2;69.7;99160;;;;
2022/03/02 21:56:10;;;;;;;112.8;158.9;;;;;;;-2;69.2;99140;;;;
2022/03/02 22:07:08;;;;;;;112.8;158.9;;;;;;;-1.6;67.4;99140;;;;
2022/03/02 22:17:08;;;;;;;76.6;95.7;;;;;;;-1.6;66.9;99140;;;;
2022/03/02 22:28:08;;;;;;;76.6;95.7;;;;;;;-1.5;66.4;99130;;;;
2022/03/02 22:38:08;;;;;;;76.6;95.7;;;;;;;-1.5;65.9;99130;;;;
2022/03/02 22:49:08;;;;;;;72.5;83.6;;;;;;;-1.7;66;99120;;;;
2022/03/02 23:00:08;;;;;;;72.5;83.6;;;;;;;-1.8;66.3;99120;;;;
2022/03/02 23:21:08;;;;;;;75.4;89.6;;;;;;;-1.9;66.4;99110;;;;
2022/03/02 23:32:08;;;;;;;75.4;89.6;;;;;;;-1.9;66.9;99110;;;;
2022/03/02 23:42:08;;;;;;;75.4;89.6;;;;;;;-1.8;66.6;99100;;;;
2022/03/02 23:52:08;;;;;;;87;110.5;;;;;;;-1.9;66.9;99090;;;;
